<?xml version="1.0" encoding="UTF-8"?>
<gpx version="1.0" creator="Trackator" xmlns:xsi="http://www.w3.org/2001/XMLSchema-instance" xmlns="http://www.topografix.com/GPX/1/0" xmlns:topografix="http://www.topografix.com/GPX/Private/TopoGrafix/0/1" xsi:schemaLocation="http://www.topografix.com/GPX/1/0 http://www.topografix.com/GPX/1/0/gpx.xsd http://www.topografix.com/GPX/Private/TopoGrafix/0/1 http://www.topografix.com/GPX/Private/TopoGrafix/0/1/topografix.xsd">
<metadata>
<link href="http://www.trackalia.com/trackatorweb.php">
<text>Trackator</text>
</link>
</metadata>
<time>2017-09-29T18:08:09Z</time>
<trk>
<name>Track: </name>
<desc>4x4-SUV</desc>
<trkseg>
<trkpt lat="53.9887701" lon="16.4853510">
<ele>163</ele>
<time>2017-09-29T18:08:09Z</time>
</trkpt>
<trkpt lat="53.9887701" lon="16.4853510">
<ele>163</ele>
<time>2017-09-29T18:08:15Z</time>
</trkpt>
<trkpt lat="53.9887701" lon="16.4853510">
<ele>163</ele>
<time>2017-09-29T18:08:21Z</time>
</trkpt>
<trkpt lat="53.9887701" lon="16.4853510">
<ele>163</ele>
<time>2017-09-29T18:08:27Z</time>
</trkpt>
<trkpt lat="53.9887701" lon="16.4853510">
<ele>163</ele>
<time>2017-09-29T18:08:33Z</time>
</trkpt>
<trkpt lat="53.9887701" lon="16.4853510">
<ele>163</ele>
<time>2017-09-29T18:08:39Z</time>
</trkpt>
<trkpt lat="53.9887701" lon="16.4853510">
<ele>163</ele>
<time>2017-09-29T18:08:45Z</time>
</trkpt>
<trkpt lat="53.9887701" lon="16.4853510">
<ele>163</ele>
<time>2017-09-29T18:08:51Z</time>
</trkpt>
<trkpt lat="53.9887701" lon="16.4853510">
<ele>163</ele>
<time>2017-09-29T18:08:57Z</time>
</trkpt>
<trkpt lat="53.9887701" lon="16.4853510">
<ele>163</ele>
<time>2017-09-29T18:09:03Z</time>
</trkpt>
<trkpt lat="53.9887701" lon="16.4853510">
<ele>163</ele>
<time>2017-09-29T18:09:09Z</time>
</trkpt>
<trkpt lat="53.9887701" lon="16.4853510">
<ele>163</ele>
<time>2017-09-29T18:09:15Z</time>
</trkpt>
<trkpt lat="53.9887701" lon="16.4853510">
<ele>163</ele>
<time>2017-09-29T18:09:21Z</time>
</trkpt>
<trkpt lat="53.9887701" lon="16.4853510">
<ele>163</ele>
<time>2017-09-29T18:09:27Z</time>
</trkpt>
<trkpt lat="53.9887701" lon="16.4853510">
<ele>163</ele>
<time>2017-09-29T18:09:33Z</time>
</trkpt>
<trkpt lat="53.9887204" lon="16.4853457">
<ele>166</ele>
<time>2017-09-29T18:09:39Z</time>
</trkpt>
<trkpt lat="53.9886982" lon="16.4853675">
<ele>166</ele>
<time>2017-09-29T18:09:45Z</time>
</trkpt>
<trkpt lat="53.9886464" lon="16.4852342">
<ele>167</ele>
<time>2017-09-29T18:09:51Z</time>
</trkpt>
<trkpt lat="53.9886481" lon="16.4850460">
<ele>167</ele>
<time>2017-09-29T18:09:57Z</time>
</trkpt>
<trkpt lat="53.9887928" lon="16.4845647">
<ele>166</ele>
<time>2017-09-29T18:10:03Z</time>
</trkpt>
<trkpt lat="53.9891411" lon="16.4839029">
<ele>165</ele>
<time>2017-09-29T18:10:09Z</time>
</trkpt>
<trkpt lat="53.9895162" lon="16.4831418">
<ele>165</ele>
<time>2017-09-29T18:10:15Z</time>
</trkpt>
<trkpt lat="53.9899422" lon="16.4821875">
<ele>165</ele>
<time>2017-09-29T18:10:21Z</time>
</trkpt>
<trkpt lat="53.9902152" lon="16.4809198">
<ele>163</ele>
<time>2017-09-29T18:10:27Z</time>
</trkpt>
<trkpt lat="53.9904810" lon="16.4794995">
<ele>162</ele>
<time>2017-09-29T18:10:33Z</time>
</trkpt>
<trkpt lat="53.9907817" lon="16.4781461">
<ele>162</ele>
<time>2017-09-29T18:10:39Z</time>
</trkpt>
<trkpt lat="53.9910026" lon="16.4772430">
<ele>163</ele>
<time>2017-09-29T18:10:45Z</time>
</trkpt>
<trkpt lat="53.9909056" lon="16.4763877">
<ele>167</ele>
<time>2017-09-29T18:10:51Z</time>
</trkpt>
<trkpt lat="53.9906258" lon="16.4752827">
<ele>168</ele>
<time>2017-09-29T18:10:57Z</time>
</trkpt>
<trkpt lat="53.9903032" lon="16.4739776">
<ele>172</ele>
<time>2017-09-29T18:11:03Z</time>
</trkpt>
<trkpt lat="53.9899626" lon="16.4726727">
<ele>174</ele>
<time>2017-09-29T18:11:09Z</time>
</trkpt>
<trkpt lat="53.9895771" lon="16.4712499">
<ele>175</ele>
<time>2017-09-29T18:11:15Z</time>
</trkpt>
<trkpt lat="53.9891541" lon="16.4696939">
<ele>175</ele>
<time>2017-09-29T18:11:21Z</time>
</trkpt>
<trkpt lat="53.9887359" lon="16.4681265">
<ele>177</ele>
<time>2017-09-29T18:11:27Z</time>
</trkpt>
<trkpt lat="53.9883283" lon="16.4665303">
<ele>179</ele>
<time>2017-09-29T18:11:33Z</time>
</trkpt>
<trkpt lat="53.9878965" lon="16.4648789">
<ele>182</ele>
<time>2017-09-29T18:11:39Z</time>
</trkpt>
<trkpt lat="53.9874334" lon="16.4631268">
<ele>183</ele>
<time>2017-09-29T18:11:45Z</time>
</trkpt>
<trkpt lat="53.9869938" lon="16.4613396">
<ele>185</ele>
<time>2017-09-29T18:11:51Z</time>
</trkpt>
<trkpt lat="53.9865552" lon="16.4595161">
<ele>187</ele>
<time>2017-09-29T18:11:57Z</time>
</trkpt>
<trkpt lat="53.9860692" lon="16.4576515">
<ele>189</ele>
<time>2017-09-29T18:12:03Z</time>
</trkpt>
<trkpt lat="53.9855818" lon="16.4557218">
<ele>192</ele>
<time>2017-09-29T18:12:09Z</time>
</trkpt>
<trkpt lat="53.9850485" lon="16.4537916">
<ele>194</ele>
<time>2017-09-29T18:12:15Z</time>
</trkpt>
<trkpt lat="53.9844475" lon="16.4519529">
<ele>196</ele>
<time>2017-09-29T18:12:21Z</time>
</trkpt>
<trkpt lat="53.9837126" lon="16.4501874">
<ele>198</ele>
<time>2017-09-29T18:12:27Z</time>
</trkpt>
<trkpt lat="53.9829522" lon="16.4484607">
<ele>200</ele>
<time>2017-09-29T18:12:33Z</time>
</trkpt>
<trkpt lat="53.9822241" lon="16.4468145">
<ele>202</ele>
<time>2017-09-29T18:12:39Z</time>
</trkpt>
<trkpt lat="53.9815062" lon="16.4450695">
<ele>198</ele>
<time>2017-09-29T18:12:45Z</time>
</trkpt>
<trkpt lat="53.9807211" lon="16.4432354">
<ele>197</ele>
<time>2017-09-29T18:12:51Z</time>
</trkpt>
<trkpt lat="53.9799488" lon="16.4413349">
<ele>194</ele>
<time>2017-09-29T18:12:57Z</time>
</trkpt>
<trkpt lat="53.9791759" lon="16.4394069">
<ele>193</ele>
<time>2017-09-29T18:13:03Z</time>
</trkpt>
<trkpt lat="53.9784165" lon="16.4374776">
<ele>192</ele>
<time>2017-09-29T18:13:09Z</time>
</trkpt>
<trkpt lat="53.9776535" lon="16.4355533">
<ele>191</ele>
<time>2017-09-29T18:13:15Z</time>
</trkpt>
<trkpt lat="53.9768812" lon="16.4336322">
<ele>191</ele>
<time>2017-09-29T18:13:21Z</time>
</trkpt>
<trkpt lat="53.9760441" lon="16.4317696">
<ele>192</ele>
<time>2017-09-29T18:13:27Z</time>
</trkpt>
<trkpt lat="53.9752513" lon="16.4298804">
<ele>194</ele>
<time>2017-09-29T18:13:33Z</time>
</trkpt>
<trkpt lat="53.9744754" lon="16.4279925">
<ele>193</ele>
<time>2017-09-29T18:13:39Z</time>
</trkpt>
<trkpt lat="53.9737158" lon="16.4261071">
<ele>192</ele>
<time>2017-09-29T18:13:45Z</time>
</trkpt>
<trkpt lat="53.9729156" lon="16.4243100">
<ele>191</ele>
<time>2017-09-29T18:13:51Z</time>
</trkpt>
<trkpt lat="53.9718420" lon="16.4230270">
<ele>190</ele>
<time>2017-09-29T18:13:57Z</time>
</trkpt>
<trkpt lat="53.9707598" lon="16.4217337">
<ele>190</ele>
<time>2017-09-29T18:14:03Z</time>
</trkpt>
<trkpt lat="53.9696630" lon="16.4204281">
<ele>190</ele>
<time>2017-09-29T18:14:09Z</time>
</trkpt>
<trkpt lat="53.9685471" lon="16.4190835">
<ele>189</ele>
<time>2017-09-29T18:14:15Z</time>
</trkpt>
<trkpt lat="53.9674307" lon="16.4177771">
<ele>187</ele>
<time>2017-09-29T18:14:21Z</time>
</trkpt>
<trkpt lat="53.9663364" lon="16.4164300">
<ele>186</ele>
<time>2017-09-29T18:14:27Z</time>
</trkpt>
<trkpt lat="53.9652402" lon="16.4150721">
<ele>183</ele>
<time>2017-09-29T18:14:33Z</time>
</trkpt>
<trkpt lat="53.9641433" lon="16.4136280">
<ele>183</ele>
<time>2017-09-29T18:14:39Z</time>
</trkpt>
<trkpt lat="53.9630084" lon="16.4121679">
<ele>183</ele>
<time>2017-09-29T18:14:45Z</time>
</trkpt>
<trkpt lat="53.9618882" lon="16.4107266">
<ele>183</ele>
<time>2017-09-29T18:14:51Z</time>
</trkpt>
<trkpt lat="53.9607696" lon="16.4092580">
<ele>182</ele>
<time>2017-09-29T18:14:57Z</time>
</trkpt>
<trkpt lat="53.9596490" lon="16.4077807">
<ele>183</ele>
<time>2017-09-29T18:15:03Z</time>
</trkpt>
<trkpt lat="53.9585982" lon="16.4063402">
<ele>184</ele>
<time>2017-09-29T18:15:09Z</time>
</trkpt>
<trkpt lat="53.9577005" lon="16.4046585">
<ele>178</ele>
<time>2017-09-29T18:15:15Z</time>
</trkpt>
<trkpt lat="53.9568580" lon="16.4028940">
<ele>179</ele>
<time>2017-09-29T18:15:21Z</time>
</trkpt>
<trkpt lat="53.9559799" lon="16.4011848">
<ele>178</ele>
<time>2017-09-29T18:15:27Z</time>
</trkpt>
<trkpt lat="53.9550665" lon="16.3996352">
<ele>175</ele>
<time>2017-09-29T18:15:33Z</time>
</trkpt>
<trkpt lat="53.9543450" lon="16.3977176">
<ele>173</ele>
<time>2017-09-29T18:15:39Z</time>
</trkpt>
<trkpt lat="53.9537070" lon="16.3959809">
<ele>170</ele>
<time>2017-09-29T18:15:45Z</time>
</trkpt>
<trkpt lat="53.9534904" lon="16.3945027">
<ele>170</ele>
<time>2017-09-29T18:15:51Z</time>
</trkpt>
<trkpt lat="53.9533921" lon="16.3934890">
<ele>174</ele>
<time>2017-09-29T18:15:57Z</time>
</trkpt>
<trkpt lat="53.9533031" lon="16.3923595">
<ele>175</ele>
<time>2017-09-29T18:16:03Z</time>
</trkpt>
<trkpt lat="53.9532281" lon="16.3912176">
<ele>175</ele>
<time>2017-09-29T18:16:09Z</time>
</trkpt>
<trkpt lat="53.9531145" lon="16.3898988">
<ele>176</ele>
<time>2017-09-29T18:16:15Z</time>
</trkpt>
<trkpt lat="53.9529929" lon="16.3882934">
<ele>176</ele>
<time>2017-09-29T18:16:21Z</time>
</trkpt>
<trkpt lat="53.9528447" lon="16.3864123">
<ele>175</ele>
<time>2017-09-29T18:16:27Z</time>
</trkpt>
<trkpt lat="53.9526942" lon="16.3843127">
<ele>173</ele>
<time>2017-09-29T18:16:33Z</time>
</trkpt>
<trkpt lat="53.9525215" lon="16.3821062">
<ele>174</ele>
<time>2017-09-29T18:16:39Z</time>
</trkpt>
<trkpt lat="53.9521754" lon="16.3776271">
<ele>172</ele>
<time>2017-09-29T18:16:51Z</time>
</trkpt>
<trkpt lat="53.9520004" lon="16.3753266">
<ele>173</ele>
<time>2017-09-29T18:16:57Z</time>
</trkpt>
<trkpt lat="53.9518226" lon="16.3730469">
<ele>173</ele>
<time>2017-09-29T18:17:03Z</time>
</trkpt>
<trkpt lat="53.9516433" lon="16.3706896">
<ele>170</ele>
<time>2017-09-29T18:17:09Z</time>
</trkpt>
<trkpt lat="53.9513975" lon="16.3683032">
<ele>169</ele>
<time>2017-09-29T18:17:15Z</time>
</trkpt>
<trkpt lat="53.9510951" lon="16.3659901">
<ele>168</ele>
<time>2017-09-29T18:17:21Z</time>
</trkpt>
<trkpt lat="53.9507547" lon="16.3636563">
<ele>168</ele>
<time>2017-09-29T18:17:27Z</time>
</trkpt>
<trkpt lat="53.9504128" lon="16.3613297">
<ele>168</ele>
<time>2017-09-29T18:17:33Z</time>
</trkpt>
<trkpt lat="53.9501140" lon="16.3590023">
<ele>167</ele>
<time>2017-09-29T18:17:39Z</time>
</trkpt>
<trkpt lat="53.9499826" lon="16.3566734">
<ele>166</ele>
<time>2017-09-29T18:17:45Z</time>
</trkpt>
<trkpt lat="53.9498905" lon="16.3543513">
<ele>166</ele>
<time>2017-09-29T18:17:51Z</time>
</trkpt>
<trkpt lat="53.9498342" lon="16.3519831">
<ele>161</ele>
<time>2017-09-29T18:17:57Z</time>
</trkpt>
<trkpt lat="53.9497550" lon="16.3496081">
<ele>156</ele>
<time>2017-09-29T18:18:03Z</time>
</trkpt>
<trkpt lat="53.9496669" lon="16.3474082">
<ele>152</ele>
<time>2017-09-29T18:18:09Z</time>
</trkpt>
<trkpt lat="53.9495362" lon="16.3453065">
<ele>151</ele>
<time>2017-09-29T18:18:15Z</time>
</trkpt>
<trkpt lat="53.9493509" lon="16.3432616">
<ele>148</ele>
<time>2017-09-29T18:18:21Z</time>
</trkpt>
<trkpt lat="53.9491814" lon="16.3412897">
<ele>146</ele>
<time>2017-09-29T18:18:27Z</time>
</trkpt>
<trkpt lat="53.9487892" lon="16.3394542">
<ele>146</ele>
<time>2017-09-29T18:18:33Z</time>
</trkpt>
<trkpt lat="53.9481982" lon="16.3377291">
<ele>143</ele>
<time>2017-09-29T18:18:39Z</time>
</trkpt>
<trkpt lat="53.9475925" lon="16.3359099">
<ele>141</ele>
<time>2017-09-29T18:18:45Z</time>
</trkpt>
<trkpt lat="53.9469672" lon="16.3340348">
<ele>140</ele>
<time>2017-09-29T18:18:51Z</time>
</trkpt>
<trkpt lat="53.9464486" lon="16.3320341">
<ele>138</ele>
<time>2017-09-29T18:18:57Z</time>
</trkpt>
<trkpt lat="53.9461620" lon="16.3297719">
<ele>138</ele>
<time>2017-09-29T18:19:03Z</time>
</trkpt>
<trkpt lat="53.9459110" lon="16.3274254">
<ele>136</ele>
<time>2017-09-29T18:19:09Z</time>
</trkpt>
<trkpt lat="53.9456515" lon="16.3250870">
<ele>135</ele>
<time>2017-09-29T18:19:15Z</time>
</trkpt>
<trkpt lat="53.9453777" lon="16.3227561">
<ele>134</ele>
<time>2017-09-29T18:19:21Z</time>
</trkpt>
<trkpt lat="53.9450375" lon="16.3204810">
<ele>132</ele>
<time>2017-09-29T18:19:27Z</time>
</trkpt>
<trkpt lat="53.9445669" lon="16.3182380">
<ele>132</ele>
<time>2017-09-29T18:19:33Z</time>
</trkpt>
<trkpt lat="53.9441025" lon="16.3160759">
<ele>135</ele>
<time>2017-09-29T18:19:39Z</time>
</trkpt>
<trkpt lat="53.9436456" lon="16.3139444">
<ele>133</ele>
<time>2017-09-29T18:19:45Z</time>
</trkpt>
<trkpt lat="53.9431812" lon="16.3117583">
<ele>131</ele>
<time>2017-09-29T18:19:51Z</time>
</trkpt>
<trkpt lat="53.9427141" lon="16.3095531">
<ele>130</ele>
<time>2017-09-29T18:19:57Z</time>
</trkpt>
<trkpt lat="53.9422321" lon="16.3072588">
<ele>128</ele>
<time>2017-09-29T18:20:03Z</time>
</trkpt>
<trkpt lat="53.9417351" lon="16.3050778">
<ele>127</ele>
<time>2017-09-29T18:20:09Z</time>
</trkpt>
<trkpt lat="53.9412870" lon="16.3030552">
<ele>126</ele>
<time>2017-09-29T18:20:15Z</time>
</trkpt>
<trkpt lat="53.9408208" lon="16.3008333">
<ele>125</ele>
<time>2017-09-29T18:20:21Z</time>
</trkpt>
<trkpt lat="53.9403135" lon="16.2983694">
<ele>123</ele>
<time>2017-09-29T18:20:27Z</time>
</trkpt>
<trkpt lat="53.9397820" lon="16.2957810">
<ele>123</ele>
<time>2017-09-29T18:20:33Z</time>
</trkpt>
<trkpt lat="53.9392564" lon="16.2932868">
<ele>122</ele>
<time>2017-09-29T18:20:39Z</time>
</trkpt>
<trkpt lat="53.9387333" lon="16.2907663">
<ele>126</ele>
<time>2017-09-29T18:20:45Z</time>
</trkpt>
<trkpt lat="53.9382407" lon="16.2884247">
<ele>130</ele>
<time>2017-09-29T18:20:51Z</time>
</trkpt>
<trkpt lat="53.9377558" lon="16.2861202">
<ele>133</ele>
<time>2017-09-29T18:20:57Z</time>
</trkpt>
<trkpt lat="53.9373011" lon="16.2838973">
<ele>134</ele>
<time>2017-09-29T18:21:03Z</time>
</trkpt>
<trkpt lat="53.9368843" lon="16.2818711">
<ele>131</ele>
<time>2017-09-29T18:21:09Z</time>
</trkpt>
<trkpt lat="53.9365033" lon="16.2799494">
<ele>130</ele>
<time>2017-09-29T18:21:15Z</time>
</trkpt>
<trkpt lat="53.9360882" lon="16.2782046">
<ele>129</ele>
<time>2017-09-29T18:21:21Z</time>
</trkpt>
<trkpt lat="53.9355779" lon="16.2766406">
<ele>126</ele>
<time>2017-09-29T18:21:27Z</time>
</trkpt>
<trkpt lat="53.9350985" lon="16.2751882">
<ele>124</ele>
<time>2017-09-29T18:21:33Z</time>
</trkpt>
<trkpt lat="53.9346676" lon="16.2738417">
<ele>122</ele>
<time>2017-09-29T18:21:39Z</time>
</trkpt>
<trkpt lat="53.9342582" lon="16.2725220">
<ele>123</ele>
<time>2017-09-29T18:21:45Z</time>
</trkpt>
<trkpt lat="53.9338314" lon="16.2712371">
<ele>122</ele>
<time>2017-09-29T18:21:51Z</time>
</trkpt>
<trkpt lat="53.9334162" lon="16.2699764">
<ele>122</ele>
<time>2017-09-29T18:21:57Z</time>
</trkpt>
<trkpt lat="53.9330020" lon="16.2687255">
<ele>121</ele>
<time>2017-09-29T18:22:03Z</time>
</trkpt>
<trkpt lat="53.9325974" lon="16.2674998">
<ele>120</ele>
<time>2017-09-29T18:22:09Z</time>
</trkpt>
<trkpt lat="53.9321916" lon="16.2663006">
<ele>120</ele>
<time>2017-09-29T18:22:15Z</time>
</trkpt>
<trkpt lat="53.9316601" lon="16.2652968">
<ele>119</ele>
<time>2017-09-29T18:22:21Z</time>
</trkpt>
<trkpt lat="53.9310990" lon="16.2643232">
<ele>118</ele>
<time>2017-09-29T18:22:27Z</time>
</trkpt>
<trkpt lat="53.9308380" lon="16.2630024">
<ele>115</ele>
<time>2017-09-29T18:22:33Z</time>
</trkpt>
<trkpt lat="53.9307498" lon="16.2616533">
<ele>114</ele>
<time>2017-09-29T18:22:39Z</time>
</trkpt>
<trkpt lat="53.9306281" lon="16.2603811">
<ele>113</ele>
<time>2017-09-29T18:22:45Z</time>
</trkpt>
<trkpt lat="53.9301581" lon="16.2596708">
<ele>112</ele>
<time>2017-09-29T18:22:51Z</time>
</trkpt>
<trkpt lat="53.9294897" lon="16.2591107">
<ele>112</ele>
<time>2017-09-29T18:22:57Z</time>
</trkpt>
<trkpt lat="53.9287766" lon="16.2585283">
<ele>113</ele>
<time>2017-09-29T18:23:03Z</time>
</trkpt>
<trkpt lat="53.9280514" lon="16.2579395">
<ele>113</ele>
<time>2017-09-29T18:23:09Z</time>
</trkpt>
<trkpt lat="53.9274808" lon="16.2571080">
<ele>111</ele>
<time>2017-09-29T18:23:15Z</time>
</trkpt>
<trkpt lat="53.9270297" lon="16.2560681">
<ele>110</ele>
<time>2017-09-29T18:23:21Z</time>
</trkpt>
<trkpt lat="53.9265624" lon="16.2548608">
<ele>111</ele>
<time>2017-09-29T18:23:27Z</time>
</trkpt>
<trkpt lat="53.9261118" lon="16.2536130">
<ele>111</ele>
<time>2017-09-29T18:23:33Z</time>
</trkpt>
<trkpt lat="53.9258343" lon="16.2526081">
<ele>111</ele>
<time>2017-09-29T18:23:39Z</time>
</trkpt>
<trkpt lat="53.9260012" lon="16.2520848">
<ele>111</ele>
<time>2017-09-29T18:23:45Z</time>
</trkpt>
<trkpt lat="53.9261384" lon="16.2511558">
<ele>113</ele>
<time>2017-09-29T18:23:51Z</time>
</trkpt>
<trkpt lat="53.9262744" lon="16.2498393">
<ele>110</ele>
<time>2017-09-29T18:23:57Z</time>
</trkpt>
<trkpt lat="53.9264620" lon="16.2482814">
<ele>110</ele>
<time>2017-09-29T18:24:03Z</time>
</trkpt>
<trkpt lat="53.9266809" lon="16.2465211">
<ele>108</ele>
<time>2017-09-29T18:24:09Z</time>
</trkpt>
<trkpt lat="53.9269044" lon="16.2447192">
<ele>107</ele>
<time>2017-09-29T18:24:15Z</time>
</trkpt>
<trkpt lat="53.9271663" lon="16.2427032">
<ele>104</ele>
<time>2017-09-29T18:24:21Z</time>
</trkpt>
<trkpt lat="53.9274500" lon="16.2405156">
<ele>102</ele>
<time>2017-09-29T18:24:27Z</time>
</trkpt>
<trkpt lat="53.9277473" lon="16.2382494">
<ele>100</ele>
<time>2017-09-29T18:24:33Z</time>
</trkpt>
<trkpt lat="53.9280322" lon="16.2359852">
<ele>100</ele>
<time>2017-09-29T18:24:39Z</time>
</trkpt>
<trkpt lat="53.9283090" lon="16.2336644">
<ele>103</ele>
<time>2017-09-29T18:24:45Z</time>
</trkpt>
<trkpt lat="53.9285758" lon="16.2313920">
<ele>104</ele>
<time>2017-09-29T18:24:51Z</time>
</trkpt>
<trkpt lat="53.9288469" lon="16.2291282">
<ele>108</ele>
<time>2017-09-29T18:24:57Z</time>
</trkpt>
<trkpt lat="53.9291174" lon="16.2268729">
<ele>107</ele>
<time>2017-09-29T18:25:03Z</time>
</trkpt>
<trkpt lat="53.9293123" lon="16.2246614">
<ele>104</ele>
<time>2017-09-29T18:25:09Z</time>
</trkpt>
<trkpt lat="53.9292961" lon="16.2223095">
<ele>102</ele>
<time>2017-09-29T18:25:15Z</time>
</trkpt>
<trkpt lat="53.9292859" lon="16.2199786">
<ele>101</ele>
<time>2017-09-29T18:25:21Z</time>
</trkpt>
<trkpt lat="53.9291631" lon="16.2177594">
<ele>99</ele>
<time>2017-09-29T18:25:27Z</time>
</trkpt>
<trkpt lat="53.9287326" lon="16.2156242">
<ele>99</ele>
<time>2017-09-29T18:25:33Z</time>
</trkpt>
<trkpt lat="53.9283276" lon="16.2134359">
<ele>99</ele>
<time>2017-09-29T18:25:39Z</time>
</trkpt>
<trkpt lat="53.9278925" lon="16.2112299">
<ele>95</ele>
<time>2017-09-29T18:25:45Z</time>
</trkpt>
<trkpt lat="53.9274633" lon="16.2090427">
<ele>94</ele>
<time>2017-09-29T18:25:51Z</time>
</trkpt>
<trkpt lat="53.9270492" lon="16.2069137">
<ele>95</ele>
<time>2017-09-29T18:25:57Z</time>
</trkpt>
<trkpt lat="53.9266485" lon="16.2049323">
<ele>95</ele>
<time>2017-09-29T18:26:03Z</time>
</trkpt>
<trkpt lat="53.9266132" lon="16.2030829">
<ele>96</ele>
<time>2017-09-29T18:26:09Z</time>
</trkpt>
<trkpt lat="53.9269605" lon="16.2013902">
<ele>100</ele>
<time>2017-09-29T18:26:15Z</time>
</trkpt>
<trkpt lat="53.9271022" lon="16.1999665">
<ele>101</ele>
<time>2017-09-29T18:26:21Z</time>
</trkpt>
<trkpt lat="53.9271913" lon="16.1983884">
<ele>102</ele>
<time>2017-09-29T18:26:27Z</time>
</trkpt>
<trkpt lat="53.9276127" lon="16.1967471">
<ele>103</ele>
<time>2017-09-29T18:26:33Z</time>
</trkpt>
<trkpt lat="53.9280543" lon="16.1948212">
<ele>101</ele>
<time>2017-09-29T18:26:39Z</time>
</trkpt>
<trkpt lat="53.9285079" lon="16.1927788">
<ele>99</ele>
<time>2017-09-29T18:26:45Z</time>
</trkpt>
<trkpt lat="53.9290097" lon="16.1906981">
<ele>98</ele>
<time>2017-09-29T18:26:51Z</time>
</trkpt>
<trkpt lat="53.9295100" lon="16.1886104">
<ele>98</ele>
<time>2017-09-29T18:26:57Z</time>
</trkpt>
<trkpt lat="53.9300008" lon="16.1864916">
<ele>97</ele>
<time>2017-09-29T18:27:03Z</time>
</trkpt>
<trkpt lat="53.9304905" lon="16.1843367">
<ele>97</ele>
<time>2017-09-29T18:27:09Z</time>
</trkpt>
<trkpt lat="53.9309844" lon="16.1821383">
<ele>98</ele>
<time>2017-09-29T18:27:15Z</time>
</trkpt>
<trkpt lat="53.9314758" lon="16.1799584">
<ele>98</ele>
<time>2017-09-29T18:27:21Z</time>
</trkpt>
<trkpt lat="53.9319611" lon="16.1779078">
<ele>98</ele>
<time>2017-09-29T18:27:27Z</time>
</trkpt>
<trkpt lat="53.9324089" lon="16.1758668">
<ele>99</ele>
<time>2017-09-29T18:27:33Z</time>
</trkpt>
<trkpt lat="53.9326144" lon="16.1736595">
<ele>99</ele>
<time>2017-09-29T18:27:39Z</time>
</trkpt>
<trkpt lat="53.9326837" lon="16.1713804">
<ele>100</ele>
<time>2017-09-29T18:27:45Z</time>
</trkpt>
<trkpt lat="53.9327369" lon="16.1691363">
<ele>102</ele>
<time>2017-09-29T18:27:51Z</time>
</trkpt>
<trkpt lat="53.9327945" lon="16.1669412">
<ele>103</ele>
<time>2017-09-29T18:27:57Z</time>
</trkpt>
<trkpt lat="53.9328508" lon="16.1647467">
<ele>99</ele>
<time>2017-09-29T18:28:03Z</time>
</trkpt>
<trkpt lat="53.9329229" lon="16.1625863">
<ele>97</ele>
<time>2017-09-29T18:28:09Z</time>
</trkpt>
<trkpt lat="53.9329706" lon="16.1604373">
<ele>96</ele>
<time>2017-09-29T18:28:15Z</time>
</trkpt>
<trkpt lat="53.9330366" lon="16.1582667">
<ele>95</ele>
<time>2017-09-29T18:28:21Z</time>
</trkpt>
<trkpt lat="53.9330821" lon="16.1560644">
<ele>96</ele>
<time>2017-09-29T18:28:27Z</time>
</trkpt>
<trkpt lat="53.9331249" lon="16.1538478">
<ele>96</ele>
<time>2017-09-29T18:28:33Z</time>
</trkpt>
<trkpt lat="53.9331821" lon="16.1516172">
<ele>97</ele>
<time>2017-09-29T18:28:39Z</time>
</trkpt>
<trkpt lat="53.9332606" lon="16.1474144">
<ele>97</ele>
<time>2017-09-29T18:28:51Z</time>
</trkpt>
<trkpt lat="53.9334319" lon="16.1447469">
<ele>99</ele>
<time>2017-09-29T18:29:03Z</time>
</trkpt>
<trkpt lat="53.9334" lon="16.142">
<ele>97</ele>
<time>2017-09-29T18:29:21Z</time>
</trkpt>
<trkpt lat="53.9334" lon="16.1406">
<ele>98</ele>
<time>2017-09-29T18:29:27Z</time>
</trkpt>
<trkpt lat="53.9335" lon="16.1389">
<ele>99</ele>
<time>2017-09-29T18:29:33Z</time>
</trkpt>
<trkpt lat="53.9335" lon="16.1372">
<ele>98</ele>
<time>2017-09-29T18:29:39Z</time>
</trkpt>
<trkpt lat="53.9335779" lon="16.1353452">
<ele>97</ele>
<time>2017-09-29T18:29:45Z</time>
</trkpt>
<trkpt lat="53.9336100" lon="16.1333222">
<ele>97</ele>
<time>2017-09-29T18:29:51Z</time>
</trkpt>
<trkpt lat="53.9336588" lon="16.1311424">
<ele>97</ele>
<time>2017-09-29T18:29:57Z</time>
</trkpt>
<trkpt lat="53.9336948" lon="16.1288195">
<ele>97</ele>
<time>2017-09-29T18:30:03Z</time>
</trkpt>
<trkpt lat="53.9337330" lon="16.1264962">
<ele>97</ele>
<time>2017-09-29T18:30:09Z</time>
</trkpt>
<trkpt lat="53.9337954" lon="16.1241636">
<ele>99</ele>
<time>2017-09-29T18:30:15Z</time>
</trkpt>
<trkpt lat="53.9338598" lon="16.1218071">
<ele>101</ele>
<time>2017-09-29T18:30:21Z</time>
</trkpt>
<trkpt lat="53.9339243" lon="16.1194932">
<ele>103</ele>
<time>2017-09-29T18:30:27Z</time>
</trkpt>
<trkpt lat="53.9339831" lon="16.1172316">
<ele>104</ele>
<time>2017-09-29T18:30:33Z</time>
</trkpt>
<trkpt lat="53.9340365" lon="16.1149963">
<ele>105</ele>
<time>2017-09-29T18:30:39Z</time>
</trkpt>
<trkpt lat="53.9334669" lon="16.1108845">
<ele>104</ele>
<time>2017-09-29T18:30:51Z</time>
</trkpt>
<trkpt lat="53.9335021" lon="16.1088238">
<ele>105</ele>
<time>2017-09-29T18:30:57Z</time>
</trkpt>
<trkpt lat="53.9335605" lon="16.1066557">
<ele>106</ele>
<time>2017-09-29T18:31:03Z</time>
</trkpt>
<trkpt lat="53.9336572" lon="16.1044949">
<ele>106</ele>
<time>2017-09-29T18:31:09Z</time>
</trkpt>
<trkpt lat="53.9337244" lon="16.1022808">
<ele>106</ele>
<time>2017-09-29T18:31:15Z</time>
</trkpt>
<trkpt lat="53.9337638" lon="16.1000491">
<ele>106</ele>
<time>2017-09-29T18:31:21Z</time>
</trkpt>
<trkpt lat="53.9337816" lon="16.0978232">
<ele>105</ele>
<time>2017-09-29T18:31:27Z</time>
</trkpt>
<trkpt lat="53.9339080" lon="16.0956604">
<ele>105</ele>
<time>2017-09-29T18:31:33Z</time>
</trkpt>
<trkpt lat="53.9342853" lon="16.0936462">
<ele>105</ele>
<time>2017-09-29T18:31:39Z</time>
</trkpt>
<trkpt lat="53.9348203" lon="16.0917487">
<ele>106</ele>
<time>2017-09-29T18:31:45Z</time>
</trkpt>
<trkpt lat="53.9355167" lon="16.0900395">
<ele>106</ele>
<time>2017-09-29T18:31:51Z</time>
</trkpt>
<trkpt lat="53.9362517" lon="16.0884062">
<ele>106</ele>
<time>2017-09-29T18:31:57Z</time>
</trkpt>
<trkpt lat="53.9369817" lon="16.0867712">
<ele>106</ele>
<time>2017-09-29T18:32:03Z</time>
</trkpt>
<trkpt lat="53.9376947" lon="16.0851028">
<ele>103</ele>
<time>2017-09-29T18:32:09Z</time>
</trkpt>
<trkpt lat="53.9384338" lon="16.0833791">
<ele>102</ele>
<time>2017-09-29T18:32:15Z</time>
</trkpt>
<trkpt lat="53.9391898" lon="16.0816509">
<ele>103</ele>
<time>2017-09-29T18:32:21Z</time>
</trkpt>
<trkpt lat="53.9399304" lon="16.0798806">
<ele>104</ele>
<time>2017-09-29T18:32:27Z</time>
</trkpt>
<trkpt lat="53.9406987" lon="16.0781143">
<ele>104</ele>
<time>2017-09-29T18:32:33Z</time>
</trkpt>
<trkpt lat="53.9414919" lon="16.0763058">
<ele>104</ele>
<time>2017-09-29T18:32:39Z</time>
</trkpt>
<trkpt lat="53.9422822" lon="16.0744860">
<ele>104</ele>
<time>2017-09-29T18:32:45Z</time>
</trkpt>
<trkpt lat="53.9430744" lon="16.0726769">
<ele>102</ele>
<time>2017-09-29T18:32:51Z</time>
</trkpt>
<trkpt lat="53.9438622" lon="16.0708690">
<ele>98</ele>
<time>2017-09-29T18:32:57Z</time>
</trkpt>
<trkpt lat="53.9446135" lon="16.0691465">
<ele>98</ele>
<time>2017-09-29T18:33:03Z</time>
</trkpt>
<trkpt lat="53.9453156" lon="16.0675706">
<ele>97</ele>
<time>2017-09-29T18:33:09Z</time>
</trkpt>
<trkpt lat="53.9460004" lon="16.0660316">
<ele>94</ele>
<time>2017-09-29T18:33:15Z</time>
</trkpt>
<trkpt lat="53.9466054" lon="16.0645676">
<ele>91</ele>
<time>2017-09-29T18:33:21Z</time>
</trkpt>
<trkpt lat="53.9469346" lon="16.0631829">
<ele>87</ele>
<time>2017-09-29T18:33:27Z</time>
</trkpt>
<trkpt lat="53.9471687" lon="16.0619637">
<ele>83</ele>
<time>2017-09-29T18:33:33Z</time>
</trkpt>
<trkpt lat="53.9473070" lon="16.0612840">
<ele>81</ele>
<time>2017-09-29T18:33:39Z</time>
</trkpt>
<trkpt lat="53.9474013" lon="16.0610953">
<ele>84</ele>
<time>2017-09-29T18:33:45Z</time>
</trkpt>
<trkpt lat="53.9474581" lon="16.0608551">
<ele>83</ele>
<time>2017-09-29T18:33:51Z</time>
</trkpt>
<trkpt lat="53.9476182" lon="16.0602980">
<ele>82</ele>
<time>2017-09-29T18:33:57Z</time>
</trkpt>
<trkpt lat="53.9477880" lon="16.0596220">
<ele>83</ele>
<time>2017-09-29T18:34:03Z</time>
</trkpt>
<trkpt lat="53.9478485" lon="16.0587223">
<ele>84</ele>
<time>2017-09-29T18:34:09Z</time>
</trkpt>
<trkpt lat="53.9478324" lon="16.0576837">
<ele>82</ele>
<time>2017-09-29T18:34:15Z</time>
</trkpt>
<trkpt lat="53.9480046" lon="16.0565864">
<ele>83</ele>
<time>2017-09-29T18:34:21Z</time>
</trkpt>
<trkpt lat="53.9482637" lon="16.0553376">
<ele>83</ele>
<time>2017-09-29T18:34:27Z</time>
</trkpt>
<trkpt lat="53.9484874" lon="16.0539957">
<ele>83</ele>
<time>2017-09-29T18:34:33Z</time>
</trkpt>
<trkpt lat="53.9485672" lon="16.0526975">
<ele>79</ele>
<time>2017-09-29T18:34:39Z</time>
</trkpt>
<trkpt lat="53.9485917" lon="16.0514283">
<ele>79</ele>
<time>2017-09-29T18:34:45Z</time>
</trkpt>
<trkpt lat="53.9485930" lon="16.0501526">
<ele>75</ele>
<time>2017-09-29T18:34:51Z</time>
</trkpt>
<trkpt lat="53.9487441" lon="16.0490371">
<ele>77</ele>
<time>2017-09-29T18:34:57Z</time>
</trkpt>
<trkpt lat="53.9487299" lon="16.0479586">
<ele>77</ele>
<time>2017-09-29T18:35:03Z</time>
</trkpt>
<trkpt lat="53.9483928" lon="16.0469665">
<ele>75</ele>
<time>2017-09-29T18:35:09Z</time>
</trkpt>
<trkpt lat="53.9485503" lon="16.0458670">
<ele>76</ele>
<time>2017-09-29T18:35:15Z</time>
</trkpt>
<trkpt lat="53.9487212" lon="16.0447608">
<ele>78</ele>
<time>2017-09-29T18:35:21Z</time>
</trkpt>
<trkpt lat="53.9486424" lon="16.0435700">
<ele>78</ele>
<time>2017-09-29T18:35:27Z</time>
</trkpt>
<trkpt lat="53.9486980" lon="16.0423654">
<ele>80</ele>
<time>2017-09-29T18:35:33Z</time>
</trkpt>
<trkpt lat="53.9488338" lon="16.0411592">
<ele>82</ele>
<time>2017-09-29T18:35:39Z</time>
</trkpt>
<trkpt lat="53.9485144" lon="16.0400001">
<ele>82</ele>
<time>2017-09-29T18:35:45Z</time>
</trkpt>
<trkpt lat="53.9479531" lon="16.0389836">
<ele>80</ele>
<time>2017-09-29T18:35:51Z</time>
</trkpt>
<trkpt lat="53.9473761" lon="16.0378324">
<ele>79</ele>
<time>2017-09-29T18:35:57Z</time>
</trkpt>
<trkpt lat="53.9467918" lon="16.0365666">
<ele>79</ele>
<time>2017-09-29T18:36:03Z</time>
</trkpt>
<trkpt lat="53.9464415" lon="16.0350002">
<ele>79</ele>
<time>2017-09-29T18:36:09Z</time>
</trkpt>
<trkpt lat="53.9462309" lon="16.0333329">
<ele>78</ele>
<time>2017-09-29T18:36:15Z</time>
</trkpt>
<trkpt lat="53.9462706" lon="16.0316009">
<ele>79</ele>
<time>2017-09-29T18:36:21Z</time>
</trkpt>
<trkpt lat="53.9461979" lon="16.0298260">
<ele>81</ele>
<time>2017-09-29T18:36:27Z</time>
</trkpt>
<trkpt lat="53.9459059" lon="16.0281045">
<ele>81</ele>
<time>2017-09-29T18:36:33Z</time>
</trkpt>
<trkpt lat="53.9456063" lon="16.0264185">
<ele>82</ele>
<time>2017-09-29T18:36:39Z</time>
</trkpt>
<trkpt lat="53.9453775" lon="16.0249752">
<ele>83</ele>
<time>2017-09-29T18:36:45Z</time>
</trkpt>
<trkpt lat="53.9449543" lon="16.0240738">
<ele>88</ele>
<time>2017-09-29T18:36:51Z</time>
</trkpt>
<trkpt lat="53.9442143" lon="16.0233521">
<ele>88</ele>
<time>2017-09-29T18:36:57Z</time>
</trkpt>
<trkpt lat="53.9434089" lon="16.0223717">
<ele>87</ele>
<time>2017-09-29T18:37:03Z</time>
</trkpt>
<trkpt lat="53.9426181" lon="16.0211783">
<ele>90</ele>
<time>2017-09-29T18:37:09Z</time>
</trkpt>
<trkpt lat="53.9418219" lon="16.0199811">
<ele>93</ele>
<time>2017-09-29T18:37:15Z</time>
</trkpt>
<trkpt lat="53.9410733" lon="16.0188433">
<ele>94</ele>
<time>2017-09-29T18:37:21Z</time>
</trkpt>
<trkpt lat="53.9405045" lon="16.0178192">
<ele>94</ele>
<time>2017-09-29T18:37:27Z</time>
</trkpt>
<trkpt lat="53.9404894" lon="16.0163562">
<ele>94</ele>
<time>2017-09-29T18:37:33Z</time>
</trkpt>
<trkpt lat="53.9405249" lon="16.0147550">
<ele>96</ele>
<time>2017-09-29T18:37:39Z</time>
</trkpt>
<trkpt lat="53.9405243" lon="16.0130106">
<ele>95</ele>
<time>2017-09-29T18:37:45Z</time>
</trkpt>
<trkpt lat="53.9405236" lon="16.0111681">
<ele>96</ele>
<time>2017-09-29T18:37:51Z</time>
</trkpt>
<trkpt lat="53.9405290" lon="16.0095214">
<ele>96</ele>
<time>2017-09-29T18:37:57Z</time>
</trkpt>
<trkpt lat="53.9403652" lon="16.0083735">
<ele>97</ele>
<time>2017-09-29T18:38:03Z</time>
</trkpt>
<trkpt lat="53.9395655" lon="16.0080395">
<ele>96</ele>
<time>2017-09-29T18:38:09Z</time>
</trkpt>
<trkpt lat="53.9387712" lon="16.0074311">
<ele>93</ele>
<time>2017-09-29T18:38:15Z</time>
</trkpt>
<trkpt lat="53.9380478" lon="16.0066481">
<ele>91</ele>
<time>2017-09-29T18:38:21Z</time>
</trkpt>
<trkpt lat="53.9373554" lon="16.0064485">
<ele>90</ele>
<time>2017-09-29T18:38:27Z</time>
</trkpt>
<trkpt lat="53.9368516" lon="16.0056909">
<ele>92</ele>
<time>2017-09-29T18:38:33Z</time>
</trkpt>
<trkpt lat="53.9364280" lon="16.0048299">
<ele>95</ele>
<time>2017-09-29T18:38:39Z</time>
</trkpt>
<trkpt lat="53.9359323" lon="16.0040437">
<ele>98</ele>
<time>2017-09-29T18:38:45Z</time>
</trkpt>
<trkpt lat="53.9354497" lon="16.0032136">
<ele>100</ele>
<time>2017-09-29T18:38:51Z</time>
</trkpt>
<trkpt lat="53.9350829" lon="16.0024320">
<ele>100</ele>
<time>2017-09-29T18:38:57Z</time>
</trkpt>
<trkpt lat="53.9351676" lon="16.0014845">
<ele>94</ele>
<time>2017-09-29T18:39:03Z</time>
</trkpt>
<trkpt lat="53.9358427" lon="16.0007540">
<ele>91</ele>
<time>2017-09-29T18:39:09Z</time>
</trkpt>
<trkpt lat="53.9364539" lon="15.9998006">
<ele>90</ele>
<time>2017-09-29T18:39:15Z</time>
</trkpt>
<trkpt lat="53.9364128" lon="15.9983065">
<ele>90</ele>
<time>2017-09-29T18:39:21Z</time>
</trkpt>
<trkpt lat="53.9361102" lon="15.9968880">
<ele>88</ele>
<time>2017-09-29T18:39:27Z</time>
</trkpt>
<trkpt lat="53.9359188" lon="15.9956543">
<ele>87</ele>
<time>2017-09-29T18:39:33Z</time>
</trkpt>
<trkpt lat="53.9357111" lon="15.9944110">
<ele>85</ele>
<time>2017-09-29T18:39:39Z</time>
</trkpt>
<trkpt lat="53.9355275" lon="15.9931366">
<ele>85</ele>
<time>2017-09-29T18:39:45Z</time>
</trkpt>
<trkpt lat="53.9355434" lon="15.9918571">
<ele>85</ele>
<time>2017-09-29T18:39:51Z</time>
</trkpt>
<trkpt lat="53.9360452" lon="15.9908022">
<ele>92</ele>
<time>2017-09-29T18:39:57Z</time>
</trkpt>
<trkpt lat="53.9364508" lon="15.9897934">
<ele>93</ele>
<time>2017-09-29T18:40:03Z</time>
</trkpt>
<trkpt lat="53.9369214" lon="15.9887964">
<ele>97</ele>
<time>2017-09-29T18:40:09Z</time>
</trkpt>
<trkpt lat="53.9373626" lon="15.9877073">
<ele>100</ele>
<time>2017-09-29T18:40:15Z</time>
</trkpt>
<trkpt lat="53.9378549" lon="15.9865447">
<ele>100</ele>
<time>2017-09-29T18:40:21Z</time>
</trkpt>
<trkpt lat="53.9383562" lon="15.9853686">
<ele>98</ele>
<time>2017-09-29T18:40:27Z</time>
</trkpt>
<trkpt lat="53.9387488" lon="15.9844265">
<ele>96</ele>
<time>2017-09-29T18:40:33Z</time>
</trkpt>
<trkpt lat="53.9389710" lon="15.9833961">
<ele>92</ele>
<time>2017-09-29T18:40:39Z</time>
</trkpt>
<trkpt lat="53.9389242" lon="15.9824745">
<ele>90</ele>
<time>2017-09-29T18:40:45Z</time>
</trkpt>
<trkpt lat="53.9389098" lon="15.9819774">
<ele>87</ele>
<time>2017-09-29T18:40:51Z</time>
</trkpt>
<trkpt lat="53.9389006" lon="15.9816079">
<ele>87</ele>
<time>2017-09-29T18:40:57Z</time>
</trkpt>
<trkpt lat="53.9389867" lon="15.9809805">
<ele>87</ele>
<time>2017-09-29T18:41:03Z</time>
</trkpt>
<trkpt lat="53.9391159" lon="15.9801601">
<ele>87</ele>
<time>2017-09-29T18:41:09Z</time>
</trkpt>
<trkpt lat="53.9392264" lon="15.9792489">
<ele>86</ele>
<time>2017-09-29T18:41:15Z</time>
</trkpt>
<trkpt lat="53.9393287" lon="15.9782239">
<ele>86</ele>
<time>2017-09-29T18:41:21Z</time>
</trkpt>
<trkpt lat="53.9395362" lon="15.9769934">
<ele>88</ele>
<time>2017-09-29T18:41:27Z</time>
</trkpt>
<trkpt lat="53.9397756" lon="15.9756622">
<ele>90</ele>
<time>2017-09-29T18:41:33Z</time>
</trkpt>
<trkpt lat="53.9400360" lon="15.9743234">
<ele>92</ele>
<time>2017-09-29T18:41:39Z</time>
</trkpt>
<trkpt lat="53.9402481" lon="15.9730619">
<ele>96</ele>
<time>2017-09-29T18:41:45Z</time>
</trkpt>
<trkpt lat="53.9404376" lon="15.9717851">
<ele>101</ele>
<time>2017-09-29T18:41:51Z</time>
</trkpt>
<trkpt lat="53.9406354" lon="15.9705153">
<ele>107</ele>
<time>2017-09-29T18:41:57Z</time>
</trkpt>
<trkpt lat="53.9408956" lon="15.9692501">
<ele>114</ele>
<time>2017-09-29T18:42:03Z</time>
</trkpt>
<trkpt lat="53.9411423" lon="15.9679609">
<ele>121</ele>
<time>2017-09-29T18:42:09Z</time>
</trkpt>
<trkpt lat="53.9413970" lon="15.9667996">
<ele>123</ele>
<time>2017-09-29T18:42:15Z</time>
</trkpt>
<trkpt lat="53.9416259" lon="15.9657170">
<ele>130</ele>
<time>2017-09-29T18:42:21Z</time>
</trkpt>
<trkpt lat="53.941" lon="15.9617">
<ele>133</ele>
<time>2017-09-29T18:42:45Z</time>
</trkpt>
<trkpt lat="53.9408" lon="15.9608">
<ele>130</ele>
<time>2017-09-29T18:42:51Z</time>
</trkpt>
<trkpt lat="53.941" lon="15.9598">
<ele>131</ele>
<time>2017-09-29T18:42:57Z</time>
</trkpt>
<trkpt lat="53.9411" lon="15.9589">
<ele>116</ele>
<time>2017-09-29T18:43:03Z</time>
</trkpt>
<trkpt lat="53.9411836" lon="15.9581447">
<ele>111</ele>
<time>2017-09-29T18:43:09Z</time>
</trkpt>
<trkpt lat="53.9412063" lon="15.9578962">
<ele>109</ele>
<time>2017-09-29T18:43:15Z</time>
</trkpt>
<trkpt lat="53.9412152" lon="15.9577477">
<ele>110</ele>
<time>2017-09-29T18:43:21Z</time>
</trkpt>
<trkpt lat="53.9412212" lon="15.9572833">
<ele>109</ele>
<time>2017-09-29T18:43:27Z</time>
</trkpt>
<trkpt lat="53.9412088" lon="15.9564828">
<ele>109</ele>
<time>2017-09-29T18:43:33Z</time>
</trkpt>
<trkpt lat="53.9412239" lon="15.9555251">
<ele>107</ele>
<time>2017-09-29T18:43:39Z</time>
</trkpt>
<trkpt lat="53.9412345" lon="15.9542045">
<ele>106</ele>
<time>2017-09-29T18:43:45Z</time>
</trkpt>
<trkpt lat="53.9412383" lon="15.9527461">
<ele>102</ele>
<time>2017-09-29T18:43:51Z</time>
</trkpt>
<trkpt lat="53.9412352" lon="15.9511578">
<ele>100</ele>
<time>2017-09-29T18:43:57Z</time>
</trkpt>
<trkpt lat="53.9411565" lon="15.9494791">
<ele>95</ele>
<time>2017-09-29T18:44:03Z</time>
</trkpt>
<trkpt lat="53.9409949" lon="15.9477334">
<ele>90</ele>
<time>2017-09-29T18:44:09Z</time>
</trkpt>
<trkpt lat="53.9407369" lon="15.9459905">
<ele>87</ele>
<time>2017-09-29T18:44:15Z</time>
</trkpt>
<trkpt lat="53.9403582" lon="15.9443193">
<ele>84</ele>
<time>2017-09-29T18:44:21Z</time>
</trkpt>
<trkpt lat="53.9399795" lon="15.9427468">
<ele>82</ele>
<time>2017-09-29T18:44:27Z</time>
</trkpt>
<trkpt lat="53.9399609" lon="15.9411012">
<ele>81</ele>
<time>2017-09-29T18:44:33Z</time>
</trkpt>
<trkpt lat="53.9410054" lon="15.9380486">
<ele>81</ele>
<time>2017-09-29T18:44:45Z</time>
</trkpt>
<trkpt lat="53.9415032" lon="15.9364891">
<ele>83</ele>
<time>2017-09-29T18:44:51Z</time>
</trkpt>
<trkpt lat="53.9419027" lon="15.9348152">
<ele>87</ele>
<time>2017-09-29T18:44:57Z</time>
</trkpt>
<trkpt lat="53.9423003" lon="15.9331752">
<ele>90</ele>
<time>2017-09-29T18:45:03Z</time>
</trkpt>
<trkpt lat="53.9430535" lon="15.9300940">
<ele>96</ele>
<time>2017-09-29T18:45:15Z</time>
</trkpt>
<trkpt lat="53.9434327" lon="15.9286198">
<ele>99</ele>
<time>2017-09-29T18:45:21Z</time>
</trkpt>
<trkpt lat="53.9439550" lon="15.9254176">
<ele>103</ele>
<time>2017-09-29T18:45:33Z</time>
</trkpt>
<trkpt lat="53.9441699" lon="15.9238865">
<ele>103</ele>
<time>2017-09-29T18:45:39Z</time>
</trkpt>
<trkpt lat="53.9443658" lon="15.9223865">
<ele>101</ele>
<time>2017-09-29T18:45:45Z</time>
</trkpt>
<trkpt lat="53.9444798" lon="15.9211960">
<ele>98</ele>
<time>2017-09-29T18:45:51Z</time>
</trkpt>
<trkpt lat="53.9445814" lon="15.9207203">
<ele>97</ele>
<time>2017-09-29T18:45:57Z</time>
</trkpt>
<trkpt lat="53.9449368" lon="15.9206077">
<ele>95</ele>
<time>2017-09-29T18:46:03Z</time>
</trkpt>
<trkpt lat="53.9454380" lon="15.9204553">
<ele>95</ele>
<time>2017-09-29T18:46:09Z</time>
</trkpt>
<trkpt lat="53.9463233" lon="15.9199038">
<ele>96</ele>
<time>2017-09-29T18:46:21Z</time>
</trkpt>
<trkpt lat="53.9462897" lon="15.9189053">
<ele>96</ele>
<time>2017-09-29T18:46:27Z</time>
</trkpt>
<trkpt lat="53.9467865" lon="15.9171544">
<ele>93</ele>
<time>2017-09-29T18:46:39Z</time>
</trkpt>
<trkpt lat="53.9470303" lon="15.9163081">
<ele>93</ele>
<time>2017-09-29T18:46:45Z</time>
</trkpt>
<trkpt lat="53.9476519" lon="15.9144999">
<ele>90</ele>
<time>2017-09-29T18:46:57Z</time>
</trkpt>
<trkpt lat="53.9479988" lon="15.9134163">
<ele>88</ele>
<time>2017-09-29T18:47:03Z</time>
</trkpt>
<trkpt lat="53.9483930" lon="15.9122177">
<ele>87</ele>
<time>2017-09-29T18:47:09Z</time>
</trkpt>
<trkpt lat="53.9488187" lon="15.9109243">
<ele>86</ele>
<time>2017-09-29T18:47:15Z</time>
</trkpt>
<trkpt lat="53.9493605" lon="15.9095616">
<ele>83</ele>
<time>2017-09-29T18:47:21Z</time>
</trkpt>
<trkpt lat="53.9499952" lon="15.9081714">
<ele>81</ele>
<time>2017-09-29T18:47:27Z</time>
</trkpt>
<trkpt lat="53.9506188" lon="15.9066452">
<ele>78</ele>
<time>2017-09-29T18:47:33Z</time>
</trkpt>
<trkpt lat="53.9512640" lon="15.9051573">
<ele>76</ele>
<time>2017-09-29T18:47:39Z</time>
</trkpt>
<trkpt lat="53.9520383" lon="15.9039513">
<ele>78</ele>
<time>2017-09-29T18:47:45Z</time>
</trkpt>
<trkpt lat="53.9525841" lon="15.9025617">
<ele>78</ele>
<time>2017-09-29T18:47:51Z</time>
</trkpt>
<trkpt lat="53.9528607" lon="15.9009742">
<ele>83</ele>
<time>2017-09-29T18:47:57Z</time>
</trkpt>
<trkpt lat="53.9531375" lon="15.8995084">
<ele>86</ele>
<time>2017-09-29T18:48:03Z</time>
</trkpt>
<trkpt lat="53.9533391" lon="15.8984970">
<ele>88</ele>
<time>2017-09-29T18:48:09Z</time>
</trkpt>
<trkpt lat="53.9545" lon="15.8985">
<ele>91</ele>
<time>2017-09-29T18:48:27Z</time>
</trkpt>
<trkpt lat="53.9551" lon="15.8986">
<ele>91</ele>
<time>2017-09-29T18:48:33Z</time>
</trkpt>
<trkpt lat="53.9557" lon="15.8986">
<ele>90</ele>
<time>2017-09-29T18:48:39Z</time>
</trkpt>
<trkpt lat="53.9564159" lon="15.8987143">
<ele>88</ele>
<time>2017-09-29T18:48:45Z</time>
</trkpt>
<trkpt lat="53.9569935" lon="15.8987520">
<ele>91</ele>
<time>2017-09-29T18:48:51Z</time>
</trkpt>
<trkpt lat="53.9574539" lon="15.8989075">
<ele>86</ele>
<time>2017-09-29T18:48:57Z</time>
</trkpt>
<trkpt lat="53.9578197" lon="15.8991115">
<ele>83</ele>
<time>2017-09-29T18:49:03Z</time>
</trkpt>
<trkpt lat="53.9580209" lon="15.8990768">
<ele>82</ele>
<time>2017-09-29T18:49:09Z</time>
</trkpt>
<trkpt lat="53.9580498" lon="15.8990339">
<ele>80</ele>
<time>2017-09-29T18:49:15Z</time>
</trkpt>
<trkpt lat="53.9580849" lon="15.8987152">
<ele>83</ele>
<time>2017-09-29T18:49:21Z</time>
</trkpt>
<trkpt lat="53.9580683" lon="15.8980935">
<ele>83</ele>
<time>2017-09-29T18:49:27Z</time>
</trkpt>
<trkpt lat="53.9580370" lon="15.8971605">
<ele>82</ele>
<time>2017-09-29T18:49:33Z</time>
</trkpt>
<trkpt lat="53.9579844" lon="15.8960577">
<ele>81</ele>
<time>2017-09-29T18:49:39Z</time>
</trkpt>
<trkpt lat="53.9579141" lon="15.8948113">
<ele>80</ele>
<time>2017-09-29T18:49:45Z</time>
</trkpt>
<trkpt lat="53.9578383" lon="15.8933656">
<ele>80</ele>
<time>2017-09-29T18:49:51Z</time>
</trkpt>
<trkpt lat="53.9577556" lon="15.8917430">
<ele>79</ele>
<time>2017-09-29T18:49:57Z</time>
</trkpt>
<trkpt lat="53.9576040" lon="15.8900152">
<ele>78</ele>
<time>2017-09-29T18:50:03Z</time>
</trkpt>
<trkpt lat="53.9572534" lon="15.8883374">
<ele>76</ele>
<time>2017-09-29T18:50:09Z</time>
</trkpt>
<trkpt lat="53.9568907" lon="15.8865100">
<ele>76</ele>
<time>2017-09-29T18:50:15Z</time>
</trkpt>
<trkpt lat="53.9565052" lon="15.8846053">
<ele>75</ele>
<time>2017-09-29T18:50:21Z</time>
</trkpt>
<trkpt lat="53.9561001" lon="15.8826562">
<ele>75</ele>
<time>2017-09-29T18:50:27Z</time>
</trkpt>
<trkpt lat="53.9557119" lon="15.8806990">
<ele>77</ele>
<time>2017-09-29T18:50:33Z</time>
</trkpt>
<trkpt lat="53.9553154" lon="15.8787385">
<ele>77</ele>
<time>2017-09-29T18:50:39Z</time>
</trkpt>
<trkpt lat="53.9549274" lon="15.8768093">
<ele>79</ele>
<time>2017-09-29T18:50:45Z</time>
</trkpt>
<trkpt lat="53.9545370" lon="15.8748999">
<ele>81</ele>
<time>2017-09-29T18:50:51Z</time>
</trkpt>
<trkpt lat="53.9541525" lon="15.8729824">
<ele>81</ele>
<time>2017-09-29T18:50:57Z</time>
</trkpt>
<trkpt lat="53.9537759" lon="15.8710623">
<ele>78</ele>
<time>2017-09-29T18:51:03Z</time>
</trkpt>
<trkpt lat="53.9525448" lon="15.8676279">
<ele>73</ele>
<time>2017-09-29T18:51:15Z</time>
</trkpt>
<trkpt lat="53.9518067" lon="15.8661174">
<ele>73</ele>
<time>2017-09-29T18:51:21Z</time>
</trkpt>
<trkpt lat="53.9510624" lon="15.8646256">
<ele>75</ele>
<time>2017-09-29T18:51:27Z</time>
</trkpt>
<trkpt lat="53.9496328" lon="15.8616528">
<ele>76</ele>
<time>2017-09-29T18:51:39Z</time>
</trkpt>
<trkpt lat="53.9489455" lon="15.8602468">
<ele>75</ele>
<time>2017-09-29T18:51:45Z</time>
</trkpt>
<trkpt lat="53.9482748" lon="15.8588309">
<ele>75</ele>
<time>2017-09-29T18:51:51Z</time>
</trkpt>
<trkpt lat="53.9475825" lon="15.8574225">
<ele>78</ele>
<time>2017-09-29T18:51:57Z</time>
</trkpt>
<trkpt lat="53.9469600" lon="15.8561489">
<ele>80</ele>
<time>2017-09-29T18:52:03Z</time>
</trkpt>
<trkpt lat="53.9463681" lon="15.8549366">
<ele>82</ele>
<time>2017-09-29T18:52:09Z</time>
</trkpt>
<trkpt lat="53.9458144" lon="15.8537863">
<ele>84</ele>
<time>2017-09-29T18:52:15Z</time>
</trkpt>
<trkpt lat="53.9452355" lon="15.8525626">
<ele>86</ele>
<time>2017-09-29T18:52:21Z</time>
</trkpt>
<trkpt lat="53.9446140" lon="15.8512733">
<ele>88</ele>
<time>2017-09-29T18:52:27Z</time>
</trkpt>
<trkpt lat="53.9432041" lon="15.8484045">
<ele>88</ele>
<time>2017-09-29T18:52:39Z</time>
</trkpt>
<trkpt lat="53.9424792" lon="15.8468555">
<ele>87</ele>
<time>2017-09-29T18:52:45Z</time>
</trkpt>
<trkpt lat="53.9418724" lon="15.8451993">
<ele>89</ele>
<time>2017-09-29T18:52:51Z</time>
</trkpt>
<trkpt lat="53.9413996" lon="15.8436407">
<ele>90</ele>
<time>2017-09-29T18:52:57Z</time>
</trkpt>
<trkpt lat="53.9408946" lon="15.8421781">
<ele>90</ele>
<time>2017-09-29T18:53:03Z</time>
</trkpt>
<trkpt lat="53.9403360" lon="15.8405816">
<ele>93</ele>
<time>2017-09-29T18:53:09Z</time>
</trkpt>
<trkpt lat="53.9397280" lon="15.8388854">
<ele>95</ele>
<time>2017-09-29T18:53:15Z</time>
</trkpt>
<trkpt lat="53.9391252" lon="15.8372173">
<ele>96</ele>
<time>2017-09-29T18:53:21Z</time>
</trkpt>
<trkpt lat="53.9385131" lon="15.8355823">
<ele>97</ele>
<time>2017-09-29T18:53:27Z</time>
</trkpt>
<trkpt lat="53.9378948" lon="15.8339107">
<ele>96</ele>
<time>2017-09-29T18:53:33Z</time>
</trkpt>
<trkpt lat="53.9373156" lon="15.8323220">
<ele>96</ele>
<time>2017-09-29T18:53:39Z</time>
</trkpt>
<trkpt lat="53.9367854" lon="15.8308500">
<ele>95</ele>
<time>2017-09-29T18:53:45Z</time>
</trkpt>
<trkpt lat="53.9362961" lon="15.8295076">
<ele>95</ele>
<time>2017-09-29T18:53:51Z</time>
</trkpt>
<trkpt lat="53.9351668" lon="15.8278337">
<ele>92</ele>
<time>2017-09-29T18:54:03Z</time>
</trkpt>
<trkpt lat="53.9345810" lon="15.8275487">
<ele>93</ele>
<time>2017-09-29T18:54:09Z</time>
</trkpt>
<trkpt lat="53.9343922" lon="15.8270082">
<ele>93</ele>
<time>2017-09-29T18:54:15Z</time>
</trkpt>
<trkpt lat="53.9346403" lon="15.8262518">
<ele>89</ele>
<time>2017-09-29T18:54:21Z</time>
</trkpt>
<trkpt lat="53.9348903" lon="15.8252892">
<ele>88</ele>
<time>2017-09-29T18:54:27Z</time>
</trkpt>
<trkpt lat="53.9351618" lon="15.8241800">
<ele>87</ele>
<time>2017-09-29T18:54:33Z</time>
</trkpt>
<trkpt lat="53.9354265" lon="15.8229626">
<ele>85</ele>
<time>2017-09-29T18:54:39Z</time>
</trkpt>
<trkpt lat="53.9354174" lon="15.8215252">
<ele>85</ele>
<time>2017-09-29T18:54:45Z</time>
</trkpt>
<trkpt lat="53.9349071" lon="15.8202374">
<ele>82</ele>
<time>2017-09-29T18:54:51Z</time>
</trkpt>
<trkpt lat="53.9342122" lon="15.8190023">
<ele>84</ele>
<time>2017-09-29T18:54:57Z</time>
</trkpt>
<trkpt lat="53.9335069" lon="15.8176346">
<ele>83</ele>
<time>2017-09-29T18:55:03Z</time>
</trkpt>
<trkpt lat="53.9327755" lon="15.8162607">
<ele>83</ele>
<time>2017-09-29T18:55:09Z</time>
</trkpt>
<trkpt lat="53.9284208" lon="15.8091353">
<ele>84</ele>
<time>2017-09-29T18:55:39Z</time>
</trkpt>
<trkpt lat="53.9270677" lon="15.8061349">
<ele>84</ele>
<time>2017-09-29T18:55:51Z</time>
</trkpt>
<trkpt lat="53.9263637" lon="15.8045662">
<ele>85</ele>
<time>2017-09-29T18:55:57Z</time>
</trkpt>
<trkpt lat="53.9256688" lon="15.8029816">
<ele>87</ele>
<time>2017-09-29T18:56:03Z</time>
</trkpt>
<trkpt lat="53.9249754" lon="15.8014211">
<ele>87</ele>
<time>2017-09-29T18:56:09Z</time>
</trkpt>
<trkpt lat="53.9242497" lon="15.7998414">
<ele>87</ele>
<time>2017-09-29T18:56:15Z</time>
</trkpt>
<trkpt lat="53.9227891" lon="15.7966099">
<ele>88</ele>
<time>2017-09-29T18:56:27Z</time>
</trkpt>
<trkpt lat="53.9220666" lon="15.7950199">
<ele>89</ele>
<time>2017-09-29T18:56:33Z</time>
</trkpt>
<trkpt lat="53.9212783" lon="15.7934652">
<ele>86</ele>
<time>2017-09-29T18:56:39Z</time>
</trkpt>
<trkpt lat="53.9204037" lon="15.7919196">
<ele>82</ele>
<time>2017-09-29T18:56:45Z</time>
</trkpt>
<trkpt lat="53.9195187" lon="15.7903636">
<ele>78</ele>
<time>2017-09-29T18:56:51Z</time>
</trkpt>
<trkpt lat="53.9186335" lon="15.7888103">
<ele>77</ele>
<time>2017-09-29T18:56:57Z</time>
</trkpt>
<trkpt lat="53.9177953" lon="15.7873196">
<ele>78</ele>
<time>2017-09-29T18:57:03Z</time>
</trkpt>
<trkpt lat="53.9170066" lon="15.7857674">
<ele>79</ele>
<time>2017-09-29T18:57:09Z</time>
</trkpt>
<trkpt lat="53.9162415" lon="15.7842242">
<ele>79</ele>
<time>2017-09-29T18:57:15Z</time>
</trkpt>
<trkpt lat="53.9154793" lon="15.7827210">
<ele>78</ele>
<time>2017-09-29T18:57:21Z</time>
</trkpt>
<trkpt lat="53.9147363" lon="15.7812028">
<ele>80</ele>
<time>2017-09-29T18:57:27Z</time>
</trkpt>
<trkpt lat="53.9132756" lon="15.7781333">
<ele>83</ele>
<time>2017-09-29T18:57:39Z</time>
</trkpt>
<trkpt lat="53.9118242" lon="15.7750346">
<ele>89</ele>
<time>2017-09-29T18:57:51Z</time>
</trkpt>
<trkpt lat="53.9111239" lon="15.7737331">
<ele>95</ele>
<time>2017-09-29T18:57:57Z</time>
</trkpt>
<trkpt lat="53.9102219" lon="15.7732295">
<ele>96</ele>
<time>2017-09-29T18:58:03Z</time>
</trkpt>
<trkpt lat="53.9090159" lon="15.7716693">
<ele>92</ele>
<time>2017-09-29T18:58:15Z</time>
</trkpt>
<trkpt lat="53.9088120" lon="15.7702150">
<ele>90</ele>
<time>2017-09-29T18:58:21Z</time>
</trkpt>
<trkpt lat="53.9085785" lon="15.7688292">
<ele>90</ele>
<time>2017-09-29T18:58:27Z</time>
</trkpt>
<trkpt lat="53.9083516" lon="15.7674767">
<ele>89</ele>
<time>2017-09-29T18:58:33Z</time>
</trkpt>
<trkpt lat="53.9080802" lon="15.7660945">
<ele>90</ele>
<time>2017-09-29T18:58:39Z</time>
</trkpt>
<trkpt lat="53.9078216" lon="15.7647482">
<ele>91</ele>
<time>2017-09-29T18:58:45Z</time>
</trkpt>
<trkpt lat="53.9077180" lon="15.7633409">
<ele>93</ele>
<time>2017-09-29T18:58:51Z</time>
</trkpt>
<trkpt lat="53.9077895" lon="15.7619455">
<ele>94</ele>
<time>2017-09-29T18:58:57Z</time>
</trkpt>
<trkpt lat="53.9080749" lon="15.7605979">
<ele>95</ele>
<time>2017-09-29T18:59:03Z</time>
</trkpt>
<trkpt lat="53.9083457" lon="15.7591543">
<ele>95</ele>
<time>2017-09-29T18:59:09Z</time>
</trkpt>
<trkpt lat="53.9084695" lon="15.7576530">
<ele>96</ele>
<time>2017-09-29T18:59:15Z</time>
</trkpt>
<trkpt lat="53.9083947" lon="15.7560231">
<ele>98</ele>
<time>2017-09-29T18:59:21Z</time>
</trkpt>
<trkpt lat="53.9083173" lon="15.7542774">
<ele>98</ele>
<time>2017-09-29T18:59:27Z</time>
</trkpt>
<trkpt lat="53.9082292" lon="15.7525522">
<ele>99</ele>
<time>2017-09-29T18:59:33Z</time>
</trkpt>
<trkpt lat="53.9080892" lon="15.7512740">
<ele>98</ele>
<time>2017-09-29T18:59:39Z</time>
</trkpt>
<trkpt lat="53.9077769" lon="15.7500103">
<ele>98</ele>
<time>2017-09-29T18:59:45Z</time>
</trkpt>
<trkpt lat="53.9073352" lon="15.7485306">
<ele>98</ele>
<time>2017-09-29T18:59:51Z</time>
</trkpt>
<trkpt lat="53.9067909" lon="15.7470152">
<ele>98</ele>
<time>2017-09-29T18:59:57Z</time>
</trkpt>
<trkpt lat="53.9060235" lon="15.7456197">
<ele>98</ele>
<time>2017-09-29T19:00:03Z</time>
</trkpt>
<trkpt lat="53.9043310" lon="15.7428897">
<ele>98</ele>
<time>2017-09-29T19:00:15Z</time>
</trkpt>
<trkpt lat="53.9034776" lon="15.7414978">
<ele>96</ele>
<time>2017-09-29T19:00:21Z</time>
</trkpt>
<trkpt lat="53.9026673" lon="15.7400705">
<ele>93</ele>
<time>2017-09-29T19:00:27Z</time>
</trkpt>
<trkpt lat="53.9019827" lon="15.7384404">
<ele>91</ele>
<time>2017-09-29T19:00:33Z</time>
</trkpt>
<trkpt lat="53.9005974" lon="15.7351322">
<ele>89</ele>
<time>2017-09-29T19:00:45Z</time>
</trkpt>
<trkpt lat="53.8999666" lon="15.7334306">
<ele>88</ele>
<time>2017-09-29T19:00:51Z</time>
</trkpt>
<trkpt lat="53.8993252" lon="15.7317306">
<ele>88</ele>
<time>2017-09-29T19:00:57Z</time>
</trkpt>
<trkpt lat="53.8986932" lon="15.7300479">
<ele>89</ele>
<time>2017-09-29T19:01:03Z</time>
</trkpt>
<trkpt lat="53.8980578" lon="15.7283785">
<ele>89</ele>
<time>2017-09-29T19:01:09Z</time>
</trkpt>
<trkpt lat="53.8974366" lon="15.7267633">
<ele>88</ele>
<time>2017-09-29T19:01:15Z</time>
</trkpt>
<trkpt lat="53.8968276" lon="15.7251482">
<ele>88</ele>
<time>2017-09-29T19:01:21Z</time>
</trkpt>
<trkpt lat="53.8961997" lon="15.7235355">
<ele>88</ele>
<time>2017-09-29T19:01:27Z</time>
</trkpt>
<trkpt lat="53.8956060" lon="15.7219271">
<ele>89</ele>
<time>2017-09-29T19:01:33Z</time>
</trkpt>
<trkpt lat="53.8950080" lon="15.7203212">
<ele>90</ele>
<time>2017-09-29T19:01:39Z</time>
</trkpt>
<trkpt lat="53.8944055" lon="15.7186892">
<ele>90</ele>
<time>2017-09-29T19:01:45Z</time>
</trkpt>
<trkpt lat="53.8938350" lon="15.7172020">
<ele>90</ele>
<time>2017-09-29T19:01:51Z</time>
</trkpt>
<trkpt lat="53.8933123" lon="15.7158122">
<ele>90</ele>
<time>2017-09-29T19:01:57Z</time>
</trkpt>
<trkpt lat="53.8928180" lon="15.7145177">
<ele>88</ele>
<time>2017-09-29T19:02:03Z</time>
</trkpt>
<trkpt lat="53.8923445" lon="15.7133399">
<ele>87</ele>
<time>2017-09-29T19:02:09Z</time>
</trkpt>
<trkpt lat="53.8919641" lon="15.7124536">
<ele>87</ele>
<time>2017-09-29T19:02:15Z</time>
</trkpt>
<trkpt lat="53.8917894" lon="15.7119767">
<ele>85</ele>
<time>2017-09-29T19:02:21Z</time>
</trkpt>
<trkpt lat="53.8917422" lon="15.7117357">
<ele>86</ele>
<time>2017-09-29T19:02:27Z</time>
</trkpt>
<trkpt lat="53.8916351" lon="15.7114010">
<ele>85</ele>
<time>2017-09-29T19:02:33Z</time>
</trkpt>
<trkpt lat="53.8913685" lon="15.7109457">
<ele>87</ele>
<time>2017-09-29T19:02:39Z</time>
</trkpt>
<trkpt lat="53.8910521" lon="15.7103208">
<ele>87</ele>
<time>2017-09-29T19:02:45Z</time>
</trkpt>
<trkpt lat="53.8907026" lon="15.7096360">
<ele>87</ele>
<time>2017-09-29T19:02:51Z</time>
</trkpt>
<trkpt lat="53.8903426" lon="15.7089611">
<ele>88</ele>
<time>2017-09-29T19:02:57Z</time>
</trkpt>
<trkpt lat="53.8901433" lon="15.7082539">
<ele>88</ele>
<time>2017-09-29T19:03:03Z</time>
</trkpt>
<trkpt lat="53.8901019" lon="15.7074677">
<ele>89</ele>
<time>2017-09-29T19:03:09Z</time>
</trkpt>
<trkpt lat="53.8901514" lon="15.7066711">
<ele>89</ele>
<time>2017-09-29T19:03:15Z</time>
</trkpt>
<trkpt lat="53.8901627" lon="15.7058629">
<ele>90</ele>
<time>2017-09-29T19:03:21Z</time>
</trkpt>
<trkpt lat="53.8901096" lon="15.7053730">
<ele>90</ele>
<time>2017-09-29T19:03:27Z</time>
</trkpt>
<trkpt lat="53.8898259" lon="15.7054371">
<ele>89</ele>
<time>2017-09-29T19:03:33Z</time>
</trkpt>
<trkpt lat="53.8894834" lon="15.7056397">
<ele>88</ele>
<time>2017-09-29T19:03:39Z</time>
</trkpt>
<trkpt lat="53.8891120" lon="15.7058590">
<ele>88</ele>
<time>2017-09-29T19:03:45Z</time>
</trkpt>
<trkpt lat="53.8887912" lon="15.7062264">
<ele>88</ele>
<time>2017-09-29T19:03:51Z</time>
</trkpt>
<trkpt lat="53.8885835" lon="15.7067515">
<ele>86</ele>
<time>2017-09-29T19:03:57Z</time>
</trkpt>
<trkpt lat="53.8882912" lon="15.7071732">
<ele>86</ele>
<time>2017-09-29T19:04:03Z</time>
</trkpt>
<trkpt lat="53.8878820" lon="15.7072996">
<ele>84</ele>
<time>2017-09-29T19:04:09Z</time>
</trkpt>
<trkpt lat="53.8875505" lon="15.7068980">
<ele>85</ele>
<time>2017-09-29T19:04:15Z</time>
</trkpt>
<trkpt lat="53.8871952" lon="15.7065147">
<ele>83</ele>
<time>2017-09-29T19:04:21Z</time>
</trkpt>
<trkpt lat="53.8867921" lon="15.7067253">
<ele>82</ele>
<time>2017-09-29T19:04:27Z</time>
</trkpt>
<trkpt lat="53.8864918" lon="15.7060852">
<ele>80</ele>
<time>2017-09-29T19:04:33Z</time>
</trkpt>
<trkpt lat="53.8861959" lon="15.7050693">
<ele>82</ele>
<time>2017-09-29T19:04:39Z</time>
</trkpt>
<trkpt lat="53.8860487" lon="15.7039366">
<ele>86</ele>
<time>2017-09-29T19:04:45Z</time>
</trkpt>
<trkpt lat="53.8860462" lon="15.7025953">
<ele>88</ele>
<time>2017-09-29T19:04:51Z</time>
</trkpt>
<trkpt lat="53.8860131" lon="15.7011356">
<ele>89</ele>
<time>2017-09-29T19:04:57Z</time>
</trkpt>
<trkpt lat="53.8859948" lon="15.6996588">
<ele>90</ele>
<time>2017-09-29T19:05:03Z</time>
</trkpt>
<trkpt lat="53.8859823" lon="15.6982085">
<ele>91</ele>
<time>2017-09-29T19:05:09Z</time>
</trkpt>
<trkpt lat="53.8861250" lon="15.6970566">
<ele>93</ele>
<time>2017-09-29T19:05:15Z</time>
</trkpt>
<trkpt lat="53.8865866" lon="15.6961169">
<ele>93</ele>
<time>2017-09-29T19:05:21Z</time>
</trkpt>
<trkpt lat="53.8870552" lon="15.6950633">
<ele>94</ele>
<time>2017-09-29T19:05:27Z</time>
</trkpt>
<trkpt lat="53.8875808" lon="15.6927284">
<ele>92</ele>
<time>2017-09-29T19:05:39Z</time>
</trkpt>
<trkpt lat="53.8878306" lon="15.6915124">
<ele>91</ele>
<time>2017-09-29T19:05:45Z</time>
</trkpt>
<trkpt lat="53.8880478" lon="15.6901699">
<ele>91</ele>
<time>2017-09-29T19:05:51Z</time>
</trkpt>
<trkpt lat="53.8881109" lon="15.6886733">
<ele>91</ele>
<time>2017-09-29T19:05:57Z</time>
</trkpt>
<trkpt lat="53.8881998" lon="15.6871739">
<ele>91</ele>
<time>2017-09-29T19:06:03Z</time>
</trkpt>
<trkpt lat="53.8884257" lon="15.6856787">
<ele>91</ele>
<time>2017-09-29T19:06:09Z</time>
</trkpt>
<trkpt lat="53.8886592" lon="15.6841780">
<ele>92</ele>
<time>2017-09-29T19:06:15Z</time>
</trkpt>
<trkpt lat="53.8888968" lon="15.6826867">
<ele>92</ele>
<time>2017-09-29T19:06:21Z</time>
</trkpt>
<trkpt lat="53.8892948" lon="15.6802615">
<ele>94</ele>
<time>2017-09-29T19:06:31Z</time>
</trkpt>
<trkpt lat="53.8896592" lon="15.6788845">
<ele>95</ele>
<time>2017-09-29T19:06:37Z</time>
</trkpt>
<trkpt lat="53.8902889" lon="15.6777869">
<ele>94</ele>
<time>2017-09-29T19:06:43Z</time>
</trkpt>
<trkpt lat="53.8909787" lon="15.6768931">
<ele>95</ele>
<time>2017-09-29T19:06:49Z</time>
</trkpt>
<trkpt lat="53.8916171" lon="15.6758455">
<ele>97</ele>
<time>2017-09-29T19:06:55Z</time>
</trkpt>
<trkpt lat="53.8920298" lon="15.6745733">
<ele>99</ele>
<time>2017-09-29T19:07:01Z</time>
</trkpt>
<trkpt lat="53.8923415" lon="15.6734853">
<ele>104</ele>
<time>2017-09-29T19:07:07Z</time>
</trkpt>
<trkpt lat="53.8920570" lon="15.6724484">
<ele>106</ele>
<time>2017-09-29T19:07:13Z</time>
</trkpt>
<trkpt lat="53.8916506" lon="15.6714959">
<ele>108</ele>
<time>2017-09-29T19:07:19Z</time>
</trkpt>
<trkpt lat="53.8914274" lon="15.6704505">
<ele>110</ele>
<time>2017-09-29T19:07:25Z</time>
</trkpt>
<trkpt lat="53.8915664" lon="15.6693039">
<ele>114</ele>
<time>2017-09-29T19:07:31Z</time>
</trkpt>
<trkpt lat="53.8917913" lon="15.6681539">
<ele>113</ele>
<time>2017-09-29T19:07:37Z</time>
</trkpt>
<trkpt lat="53.8919642" lon="15.6670713">
<ele>115</ele>
<time>2017-09-29T19:07:43Z</time>
</trkpt>
<trkpt lat="53.8920430" lon="15.6649113">
<ele>111</ele>
<time>2017-09-29T19:07:53Z</time>
</trkpt>
<trkpt lat="53.8920431" lon="15.6634716">
<ele>110</ele>
<time>2017-09-29T19:07:59Z</time>
</trkpt>
<trkpt lat="53.8920400" lon="15.6620096">
<ele>108</ele>
<time>2017-09-29T19:08:05Z</time>
</trkpt>
<trkpt lat="53.8920372" lon="15.6605475">
<ele>108</ele>
<time>2017-09-29T19:08:11Z</time>
</trkpt>
<trkpt lat="53.8920532" lon="15.6591335">
<ele>107</ele>
<time>2017-09-29T19:08:17Z</time>
</trkpt>
<trkpt lat="53.8920593" lon="15.6577826">
<ele>107</ele>
<time>2017-09-29T19:08:23Z</time>
</trkpt>
<trkpt lat="53.8920703" lon="15.6567591">
<ele>107</ele>
<time>2017-09-29T19:08:29Z</time>
</trkpt>
<trkpt lat="53.8920813" lon="15.6562920">
<ele>108</ele>
<time>2017-09-29T19:08:35Z</time>
</trkpt>
<trkpt lat="53.8920218" lon="15.6562100">
<ele>107</ele>
<time>2017-09-29T19:08:41Z</time>
</trkpt>
<trkpt lat="53.8920082" lon="15.6562173">
<ele>107</ele>
<time>2017-09-29T19:08:47Z</time>
</trkpt>
<trkpt lat="53.8920082" lon="15.6562173">
<ele>107</ele>
<time>2017-09-29T19:08:53Z</time>
</trkpt>
<trkpt lat="53.8920082" lon="15.6562173">
<ele>107</ele>
<time>2017-09-29T19:08:59Z</time>
</trkpt>
<trkpt lat="53.8920082" lon="15.6562173">
<ele>107</ele>
<time>2017-09-29T19:09:05Z</time>
</trkpt>
<trkpt lat="53.8920082" lon="15.6562173">
<ele>107</ele>
<time>2017-09-29T19:09:11Z</time>
</trkpt>
<trkpt lat="53.8920082" lon="15.6562173">
<ele>107</ele>
<time>2017-09-29T19:09:17Z</time>
</trkpt>
<trkpt lat="53.8920082" lon="15.6562173">
<ele>107</ele>
<time>2017-09-29T19:09:23Z</time>
</trkpt>
<trkpt lat="53.8920082" lon="15.6562173">
<ele>107</ele>
<time>2017-09-29T19:09:29Z</time>
</trkpt>
<trkpt lat="53.8920082" lon="15.6562173">
<ele>107</ele>
<time>2017-09-29T19:09:35Z</time>
</trkpt>
<trkpt lat="53.8920082" lon="15.6562173">
<ele>107</ele>
<time>2017-09-29T19:09:41Z</time>
</trkpt>
<trkpt lat="53.8920082" lon="15.6562173">
<ele>107</ele>
<time>2017-09-29T19:09:47Z</time>
</trkpt>
<trkpt lat="" lon="">
<ele></ele>
<time>2017-09-29TZ</time>
</trkpt>
</trkseg>
</trk>
<wpt lat="" lon="">
	<name></name>
	<desc></desc>
	<cmt></cmt>
	<photoid></photoid>
	<type></type>
</wpt>
</gpx>
